Aviation Digital Data Service (ADDS)

Output produced by METARs form (0640 UTC 24 January 2019)
found at http://aviationweather.gov/metar/data/
 
KLFT 240530Z 2406/2506 32005KT P6SM SKC 
     FM241500 36007KT P6SM SKC